NCAR-RAP Real-Time Weather Data

Output produced by METARs form (21 May 2019  10:52 UTC)
found at http://weather.rap.ucar.edu/surface/
 
RJOA 211000Z 35006KT 300V020 9999 FEW030 SCT/// 18/05 Q1006
RJOA 210900Z 19003KT 150V240 9999 FEW030 SCT/// 19/09 Q1005
RJOA 210800Z 19004KT 140V250 9999 FEW030 BKN/// 19/08 Q1005
RJOA 210700Z 20006KT 130V240 9999 FEW030 BKN/// 20/08 Q1004
RJOA 210600Z 21005KT 150V260 9999 FEW030 BKN/// 20/08 Q1004
RJOA 210500Z 25004KT 9999 FEW030 BKN/// 22/04 Q1004
RJOA 210400Z 27005KT 9999 FEW025 BKN/// 22/06 Q1005
RJOA 210300Z 32005KT 250V060 9999 FEW025 SCT/// 21/06 Q1005
RJOA 210200Z 03006KT 360V100 9999 FEW020 SCT/// 19/06 Q1006
RJOA 210100Z 29007KT 250V340 9999 FEW020 SCT/// 18/07 Q1006
RJOA 210000Z 30005KT 250V340 9999 FEW020 BKN/// 16/06 Q1006
RJOA 202300Z 32006G16KT 9999 FEW020 BKN/// 15/07 Q1007
RJOA 202200Z 30008KT CAVOK 14/08 Q1006
RJOA 202110Z 32008KT 9999 FEW015 BKN/// 13/08 Q1006 RMK 1CU015 A2972
RJOA 201307Z 24003KT 2000 R10/1300VP1800D BCFG BR FEW000 SCT001 BKN003 17/16 Q1005 RMK 1ST000 3ST001 5ST003 A2968 FG ALL QUAD
RJOA 201300Z 24004KT 210V280 2000 R10/0500VP1800U -SHRA BCFG BR FEW000 SCT001 BKN002 17/16 Q1005
RJOA 201236Z VRB02KT 3500 R10/P1800N BCFG BR FEW000 SCT003 BKN015 17/16 Q1004 RMK 1ST000 3ST003 5CU015 A2967 FG SE AND S-W
RJOA 201219Z 06004KT 2500 -SHRA BCFG BR FEW000 SCT006 BKN015 17/16 Q1004 RMK 1ST000 3ST006 5CU015 A2967 FG SE AND S-W
RJOA 201200Z VRB01KT 2000 R10/P1800N SHRA BCFG BR FEW000 SCT005 BKN010 17/15 Q1005
RJOA 201147Z VRB01KT 2000 SHRA BCFG BR FEW000 SCT006 BKN015 17/16 Q1005 RMK 1ST000 3ST006 5CU015 A2969 FG ALL QUAD
RJOA 201121Z 30006KT 2500 SHRA BCFG BR FEW000 SCT006 BKN015 18/16 Q1005 RMK 1ST000 3ST006 5CU015 A2969 FG SE AND S-SW
RJOA 201106Z 31007KT 2500 R10/0800VP1800U -SHRA BCFG BR FEW000 SCT006 BKN015 17/16 Q1005 RMK 1ST000 3ST006 5CU015 A2969 FG SE AND S-SW
RJOA 201100Z 30007KT 2000 R10/0800VP1800D SHRA BCFG BR FEW000 SCT004 BKN010 18/16 Q1005
RJOA 201042Z 31005KT 290V040 2000 SHRA BCFG BR FEW000 SCT002 BKN010 18/16 Q1005 RMK 1ST000 3ST002 5CU010 A2968 FG ALL QUAD
RJOA 201016Z 31006KT 2000 SHRA BCFG BR FEW000 SCT001 BKN002 18/16 Q1004 RMK 1ST000 4ST001 6ST002 A2966 FG ALL QUAD
RJOA 201004Z 28007KT 1000 R10/P1800N +SHRA BCFG BR FEW000 SCT001 BKN002 18/16 Q1004 RMK 1ST000 4ST001 6ST002 A2967 FG ALL QUAD
RJOA 201000Z 28006KT 1000 R10/P1800N SHRA BCFG BR FEW000 SCT001 BKN002 18/16 Q1004
RJOA 200929Z 08012KT 060V130 1500 R10/P1800N SHRA BCFG BR FEW000 SCT001 BKN006 FEW020CB 17/16 Q1003 RMK 1ST000 4ST001 6ST006 1CB020 A2963 CB 20KM W MOV NE FG ALL QUAD
RJOA 200921Z 07014KT 1000 R10/P1800N +SHRA BCFG BR FEW000 SCT001 BKN006 FEW020CB 18/16 Q1003 RMK 1ST000 4ST001 6ST006 1CB020 A2962 CB 25KM SW MOV NE FG ALL QUAD
RJOA 200915Z 07012KT 1500 R10/P1800N SHRA BCFG BR FEW000 SCT001 BKN006 18/16 Q1003 RMK 1ST000 4ST001 6ST006 A2963 FG ALL QUAD
RJOA 200900Z 07012KT 2500 SHRA BCFG BR FEW000 SCT001 BKN006 18/16 Q1003
RJOA 200843Z 08012KT 2000 R10/P1800N -SHRA BCFG BR FEW000 SCT001 BKN006 18/16 Q1003 RMK 1ST000 3ST001 5ST006 A2964 FG ALL QUAD
RJOA 200826Z 10008KT 070V140 1500 R10/P1800N SHRA BCFG BR FEW000 SCT003 BKN010 18/16 Q1003 RMK 1ST000 3ST003 5CU010 A2964 FG ALL QUAD
RJOA 200816Z 11008KT 2000 R10/0900VP1800U SHRA BCFG BR FEW000 SCT010 BKN025 18/16 Q1004 RMK 1ST000 3CU010 7CU025 A2965 FG SE AND S-W
RJOA 200809Z 11008KT 080V140 3000 SHRA BR FEW002 SCT010 BKN030 18/16 Q1004 RMK 1ST002 3CU010 7CU030 A2966
RJOA 200800Z 10007KT 8000 -SHRA FEW002 SCT015 BKN040 18/16 Q1004
RJOA 200700Z 13005KT 070V170 5000 -SHRA BR FEW015 SCT020 BKN030 19/15 Q1005
RJOA 200600Z 12008KT 080V160 9999 -SHRA FEW020 SCT030 BKN040 21/15 Q1005
RJOA 200500Z 12008KT 090V160 9999 -SHRA FEW020 BKN040 BKN070 22/14 Q1006
RJOA 200400Z 13008KT 090V180 9999 FEW030 SCT050 BKN070 22/13 Q1006
RJOA 200300Z 11011KT 080V160 9999 FEW025 SCT050 BKN110 23/14 Q1007
RJOA 200200Z 12011KT 090V160 9999 FEW025 SCT120 BKN/// 22/13 Q1007
RJOA 200100Z 12011KT 080V160 9999 FEW020 BKN120 22/15 Q1008
RJOA 200000Z 11011KT 080V160 9999 FEW020 SCT130 BKN/// 21/14 Q1008
RJOA 192300Z 09009KT 9999 FEW015 BKN100 18/14 Q1009
RJOA 192200Z 07010KT 9999 -RA FEW015 SCT045 BKN080 17/14 Q1009
RJOA 192110Z 06006KT 9999 -RA FEW010 SCT060 BKN080 16/13 Q1010 RMK 1CU010 3SC060 7AC080 A2983
RJOA 191300Z 10012KT 9999 -RA FEW025 SCT050 BKN080 19/11 Q1014
RJOA 191200Z 11010KT 9999 -RA FEW025 SCT050 BKN130 19/11 Q1014
RJOA 191100Z 12011KT 9999 FEW030 BKN130 19/12 Q1014
RJOA 191000Z 12010KT 9999 FEW030 BKN150 BKN/// 19/11 Q1014
RJOA 190900Z 12010KT 9999 FEW030 SCT070 BKN120 20/11 Q1013
RJOA 190800Z 12008KT 080V150 9999 FEW030 SCT070 BKN130 20/12 Q1014
RJOA 190700Z 11010KT 070V170 9999 FEW030 BKN130 21/11 Q1014
RJOA 190600Z 12010KT 080V160 9999 FEW030 BKN150 23/12 Q1014
RJOA 190500Z 13008KT 080V170 9999 FEW030 SCT050 BKN120 22/11 Q1015
RJOA 190400Z 12009KT 090V160 9999 FEW030 SCT120 BKN/// 23/12 Q1015
RJOA 190300Z 12009KT 080V150 9999 FEW030 SCT120 BKN/// 22/11 Q1015
RJOA 190200Z 12010G21KT 080V180 9999 FEW025 SCT/// 24/10 Q1015
RJOA 190100Z 09014KT 060V130 9999 FEW025 BKN/// 23/11 Q1016
RJOA 190000Z 08015KT 9999 FEW025 BKN/// 21/11 Q1016
RJOA 182300Z 08015KT 9999 FEW020 20/12 Q1016